Aérodrome :
LOGIN :

S'inscrire | Disclaimer

   EN    FR    IT 

 










Légende :    VFR   VFR Marginal   IFR   IFR Intensif   IFR Très Intensif
Visi : 
Plafond : 
>= 8 km
>= 3000ft
5 à 8 km
1000 à 3000 ft
1500m à 5 km
500 à 1000 ft
800 à 1500m
200 à 500 ft
< 800m
< 200 ft
Symboles :   Orages  Brouillard  Fortes neiges  Fortes précipitations  Vent > 20 kt
SIGMETs :   Divers  Orages  Givrage  Turbulence  Onde Orograph.  Cendres Volcan.







- Altitude de l'aérodrome : 1306 ft
- Code IATA : ACH


LSZR - Alten Rhein

DERNIER METAR :
  • 222350Z AUTO 26009KT 220V290 9999 -RA BKN043 08/04 Q1020

METARs EXPIRÉS :
  • 222320Z AUTO 26010KT 9999 BKN044 08/04 Q1020
  • 222250Z AUTO 26010KT 230V290 9999 BKN050 08/04 Q1020
  • 222220Z AUTO 26009KT 220V290 9999 -RA SCT038 SCT050 09/04 Q1020
  • 222150Z AUTO 26009KT 230V290 9999 -RA BKN041 SCT046 09/04 Q1020
  • 222120Z AUTO 26009KT 220V290 9999 SCT042 SCT050 BKN070 09/04 Q1020

Prévision TAF périmée.
ATIS : +41 71 858 51 66
Pas de NOTAMs connus pour ce terrain.
1 SIGMET publié pour la FIR Switzerland (LSAS) :
 
Turbulence forte
LSAS SIGMET 2 VALID 222348/230300 LSZH
LSAS SWITZERLAND UIR SEV TURB FCST W OF LINE N4544 E00910 - N4749 E00819 FL220/330 MOV E 10KT NC=



MET'MAP, la Météo Aéronautique d'un coup d'oeil ! - Copyright ORBIFLY Décembre 2007 - Disclaimer

ORBIFLY MET'MAP TEAM :

Programmation & Développement : Alexandra Zaïnal
Conception & Développement : Baudouin d'Aumeries
Co-Programmation & Développement : Marc-Olivier Méhu
Soutien technique & logistique : Manuel Goepfert

Contact : metmap@orbifly.com




SOURCES & CREDITS :

   NOAA